Time;durP1;ratioP1;P1;durP2;ratioP2;P2;SDS_P1;SDS_P2;PMS_P1;PMS_P2;Temp;Humidity;BMP_temperature;BMP_pressure;BME280_temperature;BME280_humidity;BME280_pressure;Samples;Min_cycle;Max_cycle;Signal;HPM_P1;HPM_P2
2023/10/07 00:00:52;;;;;;;13.97;4.57;;;14.80;99.90;;;;;;4982568;28;20191;-54
2023/10/07 00:03:25;;;;;;;10.80;5.00;;;14.80;99.90;;;;;;4981511;28;20220;-52
2023/10/07 00:06:00;;;;;;;13.57;4.87;;;14.90;99.90;;;;;;4984724;28;20233;-50
2023/10/07 00:08:29;;;;;;;12.67;4.80;;;14.90;99.90;;;;;;4982645;28;20218;-52
2023/10/07 00:10:58;;;;;;;11.37;4.80;;;14.90;99.90;;;;;;4988845;28;20238;-51
2023/10/07 00:13:30;;;;;;;13.00;4.97;;;14.90;99.90;;;;;;4984228;28;20220;-55
2023/10/07 00:16:01;;;;;;;8.10;4.87;;;14.90;99.90;;;;;;4988080;28;20247;-54
2023/10/07 00:18:30;;;;;;;9.97;4.97;;;14.90;99.90;;;;;;4985532;28;20942;-52
2023/10/07 00:20:59;;;;;;;9.23;4.87;;;14.80;99.90;;;;;;4980256;28;20222;-53
2023/10/07 00:23:28;;;;;;;8.80;4.30;;;14.80;99.90;;;;;;4981962;28;20582;-52
2023/10/07 00:25:58;;;;;;;8.80;4.90;;;14.80;99.90;;;;;;4990091;28;20259;-53
2023/10/07 00:28:32;;;;;;;11.90;4.87;;;14.80;99.90;;;;;;4986451;28;20200;-52
2023/10/07 00:31:03;;;;;;;6.83;4.37;;;14.80;99.90;;;;;;4981518;28;20485;-53
2023/10/07 00:33:45;;;;;;;13.93;4.77;;;14.80;99.90;;;;;;4980553;28;20684;-54
2023/10/07 00:36:27;;;;;;;8.83;5.00;;;14.80;99.90;;;;;;4983782;28;20226;-53
2023/10/07 00:38:56;;;;;;;11.87;5.60;;;14.80;99.90;;;;;;4980109;28;20232;-55
2023/10/07 00:41:26;;;;;;;6.13;4.40;;;14.70;99.90;;;;;;4985649;28;20224;-54
2023/10/07 00:44:00;;;;;;;9.17;5.13;;;14.70;99.90;;;;;;4984573;28;20237;-53
2023/10/07 00:46:29;;;;;;;7.80;4.90;;;14.70;99.90;;;;;;4979607;28;20187;-54
2023/10/07 00:48:59;;;;;;;10.63;4.80;;;14.70;99.90;;;;;;4988668;28;20547;-55
2023/10/07 00:51:34;;;;;;;12.03;5.20;;;14.70;99.90;;;;;;4981808;28;20227;-51
2023/10/07 00:54:16;;;;;;;12.07;5.23;;;14.70;99.90;;;;;;4984398;28;20239;-49
2023/10/07 00:57:05;;;;;;;11.57;5.30;;;14.70;99.90;;;;;;4984542;28;20236;-55
2023/10/07 00:59:35;;;;;;;9.13;5.13;;;14.60;99.90;;;;;;4986679;28;20751;-49
2023/10/07 01:02:06;;;;;;;11.30;5.60;;;14.60;99.90;;;;;;4983933;28;20240;-52
2023/10/07 01:04:40;;;;;;;13.83;5.27;;;14.70;99.90;;;;;;4983953;28;20236;-52
2023/10/07 01:07:19;;;;;;;13.23;5.33;;;14.60;99.90;;;;;;4989939;28;20193;-51
2023/10/07 01:10:01;;;;;;;7.60;5.03;;;14.60;99.90;;;;;;4984533;28;20589;-50
2023/10/07 01:12:36;;;;;;;7.73;5.13;;;14.60;99.90;;;;;;4983533;28;20268;-55
2023/10/07 01:15:13;;;;;;;11.63;5.67;;;14.60;99.90;;;;;;4981146;28;20735;-49
2023/10/07 01:17:43;;;;;;;8.70;5.60;;;14.50;99.90;;;;;;4986923;28;20769;-51
2023/10/07 01:20:13;;;;;;;13.27;5.60;;;14.50;99.90;;;;;;4982895;28;20228;-54
2023/10/07 01:23:02;;;;;;;10.33;5.53;;;14.50;99.90;;;;;;4983555;28;20232;-54
2023/10/07 01:25:35;;;;;;;10.63;5.40;;;14.60;99.90;;;;;;4983058;28;20771;-52
2023/10/07 01:28:04;;;;;;;11.73;5.60;;;14.50;99.90;;;;;;4980916;28;20528;-54
2023/10/07 01:30:34;;;;;;;10.07;5.73;;;14.60;99.90;;;;;;4984732;28;20246;-50
2023/10/07 01:33:09;;;;;;;10.40;5.90;;;14.60;99.90;;;;;;4984947;28;20220;-51
2023/10/07 01:35:53;;;;;;;11.70;6.30;;;14.60;99.90;;;;;;4982206;28;20234;-49
2023/10/07 01:38:24;;;;;;;12.30;6.07;;;14.70;99.90;;;;;;4984421;28;20218;-50
2023/10/07 01:41:04;;;;;;;12.93;6.07;;;14.60;99.90;;;;;;4982968;28;20231;-53
2023/10/07 01:43:39;;;;;;;12.83;5.93;;;14.70;99.90;;;;;;4981487;28;20210;-54
2023/10/07 01:46:10;;;;;;;11.23;6.17;;;14.70;99.90;;;;;;4985093;28;20560;-53
2023/10/07 01:48:49;;;;;;;13.40;6.17;;;14.70;99.90;;;;;;4980606;28;20293;-54
2023/10/07 01:51:18;;;;;;;9.37;5.90;;;14.80;99.90;;;;;;4994413;28;20222;-50
2023/10/07 01:53:49;;;;;;;12.10;6.00;;;14.80;99.90;;;;;;4988031;28;20320;-53
2023/10/07 01:56:18;;;;;;;14.30;6.07;;;14.80;99.90;;;;;;4986345;28;20627;-52
2023/10/07 01:58:48;;;;;;;10.97;5.93;;;14.90;99.90;;;;;;4986482;28;20661;-53
2023/10/07 02:01:22;;;;;;;8.17;5.50;;;15.00;99.90;;;;;;4983036;28;20191;-52
2023/10/07 02:03:51;;;;;;;7.93;5.70;;;14.90;99.90;;;;;;4989867;28;20212;-54
2023/10/07 02:06:19;;;;;;;12.70;6.50;;;14.90;99.90;;;;;;4987889;28;21001;-55
2023/10/07 02:08:50;;;;;;;12.77;6.10;;;14.90;99.90;;;;;;4986806;28;20690;-50
2023/10/07 02:11:25;;;;;;;10.53;6.60;;;14.90;99.90;;;;;;4989163;28;20685;-55
2023/10/07 02:13:55;;;;;;;9.17;5.80;;;14.90;99.90;;;;;;4987478;28;20673;-52
2023/10/07 02:16:25;;;;;;;17.87;6.63;;;14.90;99.90;;;;;;4989414;28;20216;-53
2023/10/07 02:18:54;;;;;;;11.87;5.50;;;14.90;99.90;;;;;;4986714;28;20679;-55
2023/10/07 02:21:23;;;;;;;10.27;5.93;;;14.90;99.90;;;;;;4986438;28;20221;-52
2023/10/07 02:23:53;;;;;;;12.80;6.13;;;14.90;99.90;;;;;;4975664;28;20233;-53
2023/10/07 02:26:21;;;;;;;12.33;5.50;;;14.90;99.90;;;;;;4973875;28;20220;-54
2023/10/07 02:28:52;;;;;;;11.20;6.20;;;14.80;99.90;;;;;;4989896;28;20698;-54
2023/10/07 02:31:23;;;;;;;10.87;5.90;;;14.80;99.90;;;;;;4991505;28;20239;-55
2023/10/07 02:33:52;;;;;;;10.17;5.77;;;14.80;99.90;;;;;;4989368;28;20279;-54
2023/10/07 02:36:31;;;;;;;10.20;5.60;;;14.90;99.90;;;;;;4983925;28;20268;-55
2023/10/07 02:39:05;;;;;;;16.27;5.87;;;14.90;99.90;;;;;;4985566;28;20309;-55
2023/10/07 02:41:33;;;;;;;10.20;5.80;;;14.90;99.90;;;;;;4982445;28;20235;-54
2023/10/07 02:44:05;;;;;;;10.03;5.80;;;14.90;99.90;;;;;;4987401;28;20688;-56
2023/10/07 02:46:34;;;;;;;11.43;6.00;;;15.00;99.90;;;;;;4982687;28;20282;-54
2023/10/07 02:49:10;;;;;;;7.53;5.33;;;15.00;99.90;;;;;;4985846;28;20204;-55
2023/10/07 02:51:45;;;;;;;12.90;6.57;;;15.00;99.90;;;;;;4990303;28;20231;-54
2023/10/07 02:54:20;;;;;;;9.23;5.43;;;15.00;99.90;;;;;;4978961;28;20226;-55
2023/10/07 02:56:55;;;;;;;9.83;5.73;;;15.00;99.90;;;;;;4990127;28;20227;-55
2023/10/07 02:59:29;;;;;;;10.17;5.57;;;15.10;99.90;;;;;;4985570;28;20237;-53
2023/10/07 03:04:58;;;;;;;8.53;5.50;;;15.00;99.90;;;;;;4985687;28;20839;-54
2023/10/07 03:07:27;;;;;;;9.83;5.90;;;15.10;99.90;;;;;;4985959;28;20243;-53
2023/10/07 03:10:05;;;;;;;9.93;5.27;;;15.00;99.90;;;;;;4986675;28;20238;-54
2023/10/07 03:12:36;;;;;;;9.40;5.03;;;15.10;99.90;;;;;;4982441;28;20742;-50
2023/10/07 03:15:20;;;;;;;9.07;5.30;;;15.10;99.90;;;;;;4988263;28;20216;-54
2023/10/07 03:17:50;;;;;;;9.53;5.10;;;15.10;99.90;;;;;;4989698;28;20227;-53
2023/10/07 03:20:28;;;;;;;9.00;5.33;;;15.00;99.90;;;;;;4983939;28;20220;-53
2023/10/07 03:23:15;;;;;;;8.73;5.10;;;15.10;99.90;;;;;;4983564;28;20593;-54
2023/10/07 03:26:05;;;;;;;12.33;5.60;;;15.10;99.90;;;;;;4982672;28;20228;-52
2023/10/07 03:28:36;;;;;;;9.87;5.23;;;15.10;99.90;;;;;;4985815;28;20189;-52
2023/10/07 03:31:10;;;;;;;10.87;5.77;;;15.10;99.90;;;;;;4990248;28;20246;-52
2023/10/07 03:33:44;;;;;;;12.17;5.83;;;15.20;99.90;;;;;;4988729;28;20279;-53
2023/10/07 03:39:09;;;;;;;9.00;5.50;;;15.10;99.90;;;;;;4981984;28;20236;-53
2023/10/07 03:41:41;;;;;;;11.00;5.30;;;15.10;99.90;;;;;;4989211;28;20252;-55
2023/10/07 03:44:10;;;;;;;9.17;5.40;;;15.10;99.90;;;;;;4982789;28;20576;-55
2023/10/07 03:46:40;;;;;;;11.03;5.83;;;15.10;99.90;;;;;;4984489;28;20541;-55
2023/10/07 03:49:09;;;;;;;10.93;6.03;;;15.10;99.90;;;;;;4987445;28;20292;-52
2023/10/07 03:51:37;;;;;;;12.10;5.97;;;15.10;99.90;;;;;;4985863;28;20235;-54
2023/10/07 03:54:11;;;;;;;10.60;5.87;;;15.10;99.90;;;;;;4987851;28;20688;-55
2023/10/07 03:56:43;;;;;;;10.33;5.70;;;15.10;99.90;;;;;;4982930;28;20221;-55
2023/10/07 03:59:15;;;;;;;12.40;6.53;;;15.10;99.90;;;;;;4985017;28;20301;-55
2023/10/07 04:01:44;;;;;;;9.37;6.37;;;15.10;99.90;;;;;;4983536;28;20233;-55
2023/10/07 04:04:13;;;;;;;13.17;6.27;;;15.10;99.90;;;;;;4988050;28;20602;-56
2023/10/07 04:06:42;;;;;;;10.97;6.27;;;15.20;99.90;;;;;;4983874;28;20222;-53
2023/10/07 04:09:11;;;;;;;14.43;6.50;;;15.10;99.90;;;;;;4992386;28;20263;-56
2023/10/07 04:11:48;;;;;;;9.53;5.57;;;15.10;99.90;;;;;;5001734;28;20227;-54
2023/10/07 04:14:27;;;;;;;10.50;5.57;;;15.10;99.90;;;;;;5004403;28;20269;-54
2023/10/07 04:17:00;;;;;;;9.97;6.13;;;15.10;99.90;;;;;;5007539;28;20662;-52
2023/10/07 04:19:34;;;;;;;11.60;5.63;;;15.10;99.90;;;;;;5001205;28;20560;-53
2023/10/07 04:22:07;;;;;;;11.53;6.17;;;15.10;99.90;;;;;;5001805;28;20302;-55
2023/10/07 04:24:38;;;;;;;11.60;5.80;;;15.00;99.90;;;;;;5011304;28;20232;-54
2023/10/07 04:27:10;;;;;;;13.00;6.50;;;15.00;99.90;;;;;;5005777;28;20270;-55
2023/10/07 04:29:39;;;;;;;9.20;5.70;;;15.00;99.90;;;;;;5006756;28;20232;-56
2023/10/07 04:32:12;;;;;;;11.87;6.37;;;15.10;99.90;;;;;;5006680;28;20313;-52
2023/10/07 04:35:00;;;;;;;11.33;5.87;;;15.00;99.90;;;;;;5002935;28;20314;-52
2023/10/07 04:37:47;;;;;;;8.40;5.97;;;15.00;99.90;;;;;;5005174;28;20197;-51
2023/10/07 04:45:50;;;;;;;11.77;5.93;;;15.00;99.90;;;;;;5019902;28;20233;-55
2023/10/07 04:48:23;;;;;;;12.23;6.77;;;14.90;99.90;;;;;;5006083;28;20221;-53
2023/10/07 04:51:03;;;;;;;12.10;6.60;;;14.80;99.90;;;;;;5003611;28;20247;-54
2023/10/07 04:53:38;;;;;;;14.60;7.00;;;14.90;99.90;;;;;;5004268;28;20606;-53
2023/10/07 04:56:08;;;;;;;13.80;6.93;;;14.80;99.90;;;;;;5000972;28;20231;-49
2023/10/07 04:58:39;;;;;;;8.20;6.47;;;14.80;99.90;;;;;;5006457;28;20709;-55
2023/10/07 05:01:22;;;;;;;13.67;6.90;;;14.80;99.90;;;;;;5006891;28;20194;-52
2023/10/07 05:03:55;;;;;;;14.37;6.70;;;14.80;99.90;;;;;;5004891;28;20220;-54
2023/10/07 05:06:24;;;;;;;17.43;7.47;;;14.80;99.90;;;;;;5004706;28;21245;-53
2023/10/07 05:08:52;;;;;;;9.00;6.77;;;14.70;99.90;;;;;;5008202;28;20229;-54
2023/10/07 05:11:20;;;;;;;14.73;7.37;;;14.70;99.90;;;;;;5017832;28;20289;-52
2023/10/07 05:13:50;;;;;;;17.40;7.90;;;14.70;99.90;;;;;;5002659;28;20564;-54
2023/10/07 05:16:19;;;;;;;12.83;6.87;;;14.60;99.90;;;;;;5004128;28;20720;-54
2023/10/07 05:18:47;;;;;;;14.10;7.37;;;14.60;99.90;;;;;;5006463;28;20205;-50
2023/10/07 05:21:19;;;;;;;16.57;7.57;;;14.50;99.90;;;;;;5003058;28;20227;-51
2023/10/07 05:23:48;;;;;;;11.57;7.67;;;14.50;99.90;;;;;;4986830;28;20296;-55
2023/10/07 05:26:17;;;;;;;11.23;7.53;;;14.50;99.90;;;;;;5004766;28;20226;-50
2023/10/07 05:28:49;;;;;;;15.70;7.13;;;14.50;99.90;;;;;;5001690;28;20231;-53
2023/10/07 05:31:18;;;;;;;9.87;7.13;;;14.50;99.90;;;;;;5014857;28;20197;-54
2023/10/07 05:33:47;;;;;;;15.67;7.53;;;14.50;99.90;;;;;;5005385;28;20571;-53
2023/10/07 05:36:17;;;;;;;19.43;7.43;;;14.50;99.90;;;;;;5003131;28;20229;-54
2023/10/07 05:38:50;;;;;;;12.07;7.53;;;14.40;99.90;;;;;;5005544;28;20262;-52
2023/10/07 05:41:18;;;;;;;10.07;6.50;;;14.50;99.90;;;;;;5002291;28;20227;-54
2023/10/07 05:43:51;;;;;;;10.83;6.67;;;14.40;99.90;;;;;;5004035;28;20322;-55
2023/10/07 05:46:20;;;;;;;15.03;7.33;;;14.40;99.90;;;;;;4986560;28;20708;-53
2023/10/07 05:48:51;;;;;;;13.27;7.37;;;14.40;99.90;;;;;;5001620;28;20198;-54
2023/10/07 05:51:20;;;;;;;11.40;7.23;;;14.40;99.90;;;;;;5000990;28;20230;-54
2023/10/07 05:53:51;;;;;;;14.53;7.27;;;14.50;99.90;;;;;;4988159;28;20640;-54
2023/10/07 05:56:22;;;;;;;12.27;7.47;;;14.50;99.90;;;;;;5004638;28;20232;-54
2023/10/07 05:58:54;;;;;;;12.67;7.00;;;14.40;99.90;;;;;;4998437;28;20239;-56
2023/10/07 06:01:23;;;;;;;14.50;7.03;;;14.40;99.90;;;;;;5003326;28;20211;-53
2023/10/07 06:03:52;;;;;;;14.20;7.40;;;14.40;99.90;;;;;;5002204;28;20598;-55
2023/10/07 06:06:24;;;;;;;11.77;6.90;;;14.40;99.90;;;;;;5000325;28;20729;-52
2023/10/07 06:08:53;;;;;;;14.87;7.30;;;14.40;99.90;;;;;;4997604;28;20237;-52
2023/10/07 06:11:23;;;;;;;15.50;7.10;;;14.50;99.90;;;;;;4983400;28;20232;-53
2023/10/07 06:13:52;;;;;;;10.83;6.77;;;14.40;99.90;;;;;;4982012;28;20238;-54
2023/10/07 06:16:21;;;;;;;13.97;7.23;;;14.50;99.90;;;;;;4987950;28;20188;-55
2023/10/07 06:18:49;;;;;;;16.87;6.47;;;14.50;99.90;;;;;;4984907;28;20206;-55
2023/10/07 06:21:27;;;;;;;14.37;7.23;;;14.50;99.90;;;;;;4982247;28;20224;-53
2023/10/07 06:23:58;;;;;;;14.30;6.80;;;14.50;99.90;;;;;;4983697;28;20720;-53
2023/10/07 06:26:30;;;;;;;12.37;6.67;;;14.50;99.90;;;;;;4985199;28;20228;-53
2023/10/07 06:29:05;;;;;;;13.63;6.87;;;14.50;99.90;;;;;;4983152;28;20232;-54
2023/10/07 06:31:36;;;;;;;9.33;6.67;;;14.50;99.90;;;;;;4983473;28;20199;-53
2023/10/07 06:34:12;;;;;;;13.70;6.80;;;14.60;99.90;;;;;;4984466;28;20244;-54
2023/10/07 06:36:41;;;;;;;13.20;6.50;;;14.70;99.90;;;;;;4985694;28;20247;-54
2023/10/07 06:39:10;;;;;;;12.90;6.63;;;14.70;99.90;;;;;;4984830;28;20223;-53
2023/10/07 06:41:42;;;;;;;11.87;6.73;;;14.70;99.90;;;;;;4959985;28;20224;-55
2023/10/07 06:44:15;;;;;;;14.10;6.87;;;14.70;99.90;;;;;;4991447;28;20230;-54
2023/10/07 06:46:46;;;;;;;11.97;6.60;;;14.70;99.90;;;;;;4984093;28;20223;-53
2023/10/07 06:49:16;;;;;;;13.37;6.43;;;14.70;99.90;;;;;;4991008;28;20402;-53
2023/10/07 06:51:45;;;;;;;12.20;7.17;;;14.70;99.90;;;;;;4988549;28;20232;-53
2023/10/07 06:54:14;;;;;;;13.83;7.10;;;14.70;99.90;;;;;;4986664;28;20309;-53
2023/10/07 06:56:45;;;;;;;9.57;6.17;;;14.70;99.90;;;;;;4984628;28;20232;-52
2023/10/07 06:59:16;;;;;;;14.87;6.63;;;14.70;99.90;;;;;;4984484;28;20236;-55
2023/10/07 07:01:54;;;;;;;12.67;6.53;;;14.80;99.90;;;;;;4983299;28;20265;-54
2023/10/07 07:04:25;;;;;;;13.23;6.47;;;14.80;99.90;;;;;;4984786;28;20201;-54
2023/10/07 07:07:10;;;;;;;12.13;6.77;;;14.80;99.90;;;;;;4986811;28;20973;-55
2023/10/07 07:09:43;;;;;;;16.40;6.90;;;14.90;99.90;;;;;;4996358;28;20238;-53
2023/10/07 07:12:16;;;;;;;10.63;6.63;;;14.90;99.90;;;;;;5002619;28;20223;-56
2023/10/07 07:14:50;;;;;;;11.27;6.47;;;15.00;99.90;;;;;;5007750;28;20309;-55
2023/10/07 07:23:10;;;;;;;8.63;6.47;;;15.00;99.90;;;;;;5000661;28;20250;-54
2023/10/07 07:25:39;;;;;;;11.77;6.87;;;14.90;99.90;;;;;;5018018;28;20231;-54
2023/10/07 07:28:10;;;;;;;14.93;6.37;;;14.90;99.90;;;;;;5006411;28;20191;-54
2023/10/07 07:30:43;;;;;;;12.40;7.07;;;14.90;99.90;;;;;;5021210;28;20225;-53
2023/10/07 07:33:13;;;;;;;11.30;6.23;;;14.90;99.90;;;;;;5004656;28;20584;-54
2023/10/07 07:35:43;;;;;;;17.23;6.53;;;14.90;99.90;;;;;;5003572;28;20221;-55
2023/10/07 07:38:26;;;;;;;11.53;6.67;;;15.00;99.90;;;;;;4985735;28;20327;-54
2023/10/07 07:41:04;;;;;;;15.53;6.83;;;15.00;99.90;;;;;;5007480;28;20675;-55
2023/10/07 07:43:35;;;;;;;11.67;6.77;;;14.90;99.90;;;;;;5003241;28;20189;-54
2023/10/07 07:46:17;;;;;;;13.80;6.60;;;15.00;99.90;;;;;;5007468;28;20295;-54
2023/10/07 07:48:48;;;;;;;12.03;7.10;;;15.00;99.90;;;;;;5006841;28;20282;-54
2023/10/07 07:51:17;;;;;;;10.10;6.80;;;15.00;99.90;;;;;;5018994;28;20681;-54
2023/10/07 07:53:46;;;;;;;12.53;6.50;;;15.20;99.90;;;;;;5008697;28;20973;-52
2023/10/07 07:56:15;;;;;;;11.43;7.00;;;15.40;99.90;;;;;;5004115;28;20350;-53
2023/10/07 07:58:47;;;;;;;16.60;7.47;;;15.60;99.90;;;;;;5003525;28;20726;-55
2023/10/07 08:01:22;;;;;;;9.37;6.60;;;15.80;99.90;;;;;;5003327;28;20193;-54
2023/10/07 08:04:09;;;;;;;10.37;6.93;;;15.90;99.90;;;;;;5002461;28;20184;-53
2023/10/07 08:06:41;;;;;;;13.17;7.37;;;15.90;99.90;;;;;;5000674;28;20768;-52
2023/10/07 08:09:12;;;;;;;13.57;6.70;;;16.10;99.90;;;;;;4995592;28;21061;-54
2023/10/07 08:11:44;;;;;;;15.53;7.73;;;16.20;99.90;;;;;;4985472;28;20295;-54
2023/10/07 08:14:23;;;;;;;16.93;7.10;;;16.30;99.90;;;;;;4974789;28;20879;-52
2023/10/07 08:17:19;;;;;;;14.80;7.27;;;16.50;99.90;;;;;;4981264;28;20310;-51
2023/10/07 08:20:10;;;;;;;14.00;6.90;;;16.70;99.90;;;;;;4982259;28;20247;-52
2023/10/07 08:22:51;;;;;;;13.47;7.03;;;16.80;99.90;;;;;;4967890;28;20281;-55
2023/10/07 08:25:35;;;;;;;13.33;7.33;;;16.90;99.90;;;;;;4984029;28;20195;-53
2023/10/07 08:28:18;;;;;;;15.93;7.60;;;17.00;99.90;;;;;;4984690;28;20191;-54
2023/10/07 08:30:47;;;;;;;14.37;7.40;;;17.10;99.90;;;;;;4982145;28;20213;-54
2023/10/07 08:33:22;;;;;;;12.70;7.37;;;17.30;99.90;;;;;;4987297;28;20227;-54
2023/10/07 08:35:51;;;;;;;14.48;8.52;;;17.30;99.90;;;;;;4983529;28;20426;-54
2023/10/07 08:38:22;;;;;;;9.20;6.90;;;17.40;99.90;;;;;;4982405;28;20227;-49
2023/10/07 08:41:04;;;;;;;12.67;7.33;;;17.50;99.90;;;;;;4982431;28;20229;-53
2023/10/07 08:43:38;;;;;;;13.97;6.90;;;17.60;99.90;;;;;;4980545;28;20198;-53
2023/10/07 08:46:11;;;;;;;16.75;7.50;;;17.70;99.90;;;;;;4982664;28;20788;-52
2023/10/07 08:48:49;;;;;;;11.60;6.80;;;17.90;99.90;;;;;;4983270;28;20315;-52
2023/10/07 08:51:22;;;;;;;15.67;7.80;;;18.00;99.90;;;;;;4981966;28;20612;-50
2023/10/07 08:53:56;;;;;;;11.30;6.80;;;18.10;99.90;;;;;;4981597;28;20234;-50
2023/10/07 08:56:28;;;;;;;14.83;7.00;;;18.10;99.90;;;;;;4984696;28;20222;-49
2023/10/07 08:58:57;;;;;;;9.67;7.00;;;18.10;99.90;;;;;;4987694;28;20231;-49
2023/10/07 09:01:26;;;;;;;17.00;6.83;;;18.30;99.90;;;;;;4979109;28;20953;-50
2023/10/07 09:04:03;;;;;;;11.50;6.93;;;18.30;99.90;;;;;;4986528;28;20199;-54
2023/10/07 09:06:33;;;;;;;11.00;6.40;;;18.40;99.90;;;;;;4981094;28;20330;-54
2023/10/07 09:09:06;;;;;;;13.37;6.60;;;18.40;99.90;;;;;;4982156;28;20715;-53
2023/10/07 09:11:37;;;;;;;13.80;6.80;;;18.60;99.90;;;;;;4986661;28;20234;-53
2023/10/07 09:14:07;;;;;;;11.07;6.53;;;18.60;99.90;;;;;;4981301;28;20231;-54
2023/10/07 09:16:38;;;;;;;12.67;5.87;;;18.70;99.90;;;;;;4981558;28;20305;-53
2023/10/07 09:19:15;;;;;;;10.70;5.37;;;18.80;99.90;;;;;;4985752;28;20540;-52
2023/10/07 09:21:45;;;;;;;10.20;5.47;;;18.90;99.90;;;;;;4984321;28;20227;-55
2023/10/07 09:24:24;;;;;;;9.17;5.07;;;18.90;99.90;;;;;;4979226;28;20231;-55
2023/10/07 09:26:57;;;;;;;8.70;4.90;;;18.90;99.90;;;;;;4976643;28;20223;-53
2023/10/07 09:29:26;;;;;;;14.57;5.20;;;19.00;99.90;;;;;;4980371;28;20258;-52
2023/10/07 09:32:04;;;;;;;15.10;5.67;;;19.20;99.90;;;;;;4981625;28;20247;-54
2023/10/07 09:34:43;;;;;;;14.37;4.87;;;19.30;99.90;;;;;;4979968;28;20205;-55
2023/10/07 09:37:13;;;;;;;8.93;4.90;;;19.50;99.90;;;;;;4984016;28;20202;-50
2023/10/07 09:39:46;;;;;;;7.47;5.10;;;19.50;99.90;;;;;;4981554;28;20438;-53
2023/10/07 09:42:27;;;;;;;9.30;4.90;;;19.60;99.90;;;;;;4981848;28;20229;-55
2023/10/07 09:45:00;;;;;;;10.93;5.50;;;19.70;99.90;;;;;;4967193;28;20223;-52
2023/10/07 09:47:33;;;;;;;13.07;5.73;;;19.80;99.90;;;;;;4980928;28;20719;-53
2023/10/07 09:50:10;;;;;;;11.33;5.60;;;19.80;99.90;;;;;;4971361;28;20696;-50
2023/10/07 09:52:42;;;;;;;9.13;5.33;;;19.90;99.90;;;;;;4979089;28;20546;-52
2023/10/07 09:55:40;;;;;;;9.43;5.23;;;19.90;99.90;;;;;;4995930;28;20245;-55
2023/10/07 09:58:36;;;;;;;9.80;4.83;;;19.90;99.90;;;;;;4978834;28;20236;-55
2023/10/07 10:01:36;;;;;;;11.73;4.80;;;20.00;99.90;;;;;;4982697;28;20769;-55
2023/10/07 10:04:28;;;;;;;9.00;5.03;;;20.10;99.90;;;;;;4982792;28;20231;-53
2023/10/07 10:07:17;;;;;;;13.37;5.27;;;20.20;99.90;;;;;;4985495;28;20223;-50
2023/10/07 10:10:05;;;;;;;10.97;5.17;;;20.20;99.90;;;;;;4984992;28;20238;-51
2023/10/07 10:12:49;;;;;;;11.40;5.60;;;20.20;99.90;;;;;;4984881;28;20219;-50
2023/10/07 10:18:07;;;;;;;10.57;5.30;;;20.40;99.90;;;;;;4982311;28;20305;-48
2023/10/07 10:20:42;;;;;;;8.83;4.63;;;20.40;99.90;;;;;;4985407;28;20703;-49
2023/10/07 10:23:19;;;;;;;7.60;5.27;;;20.40;99.90;;;;;;4988241;28;20222;-48
2023/10/07 10:25:50;;;;;;;9.17;5.47;;;20.30;99.90;;;;;;4987118;28;20238;-51
2023/10/07 10:28:27;;;;;;;12.03;5.00;;;20.40;99.90;;;;;;4988511;28;20234;-49
2023/10/07 10:30:56;;;;;;;12.73;5.57;;;20.50;99.90;;;;;;4988488;28;20678;-51
2023/10/07 10:33:28;;;;;;;14.83;5.33;;;20.60;99.90;;;;;;4982302;28;20230;-51
2023/10/07 10:35:59;;;;;;;10.53;5.07;;;20.60;99.90;;;;;;4988100;28;20214;-50
2023/10/07 10:38:37;;;;;;;10.57;4.77;;;20.70;99.90;;;;;;4980271;28;20231;-48
2023/10/07 10:41:08;;;;;;;9.47;5.50;;;20.70;99.90;;;;;;4990700;28;20226;-50
2023/10/07 10:43:36;;;;;;;11.40;5.13;;;20.70;99.90;;;;;;4982587;28;20220;-48
2023/10/07 10:46:05;;;;;;;8.00;4.87;;;20.70;99.90;;;;;;4981730;28;20210;-48
2023/10/07 10:48:35;;;;;;;9.37;5.40;;;20.80;99.90;;;;;;4984728;28;20342;-50
2023/10/07 10:51:05;;;;;;;10.00;5.30;;;20.90;99.90;;;;;;4981161;28;20313;-51
2023/10/07 10:53:40;;;;;;;8.20;4.80;;;20.90;99.90;;;;;;4980055;28;20227;-49
2023/10/07 10:56:10;;;;;;;7.20;4.90;;;20.90;99.90;;;;;;4984787;28;20249;-49
2023/10/07 10:58:39;;;;;;;11.53;5.10;;;21.00;99.90;;;;;;4985503;28;20258;-53
2023/10/07 11:01:07;;;;;;;9.27;4.77;;;21.00;99.90;;;;;;4986966;28;20198;-52
2023/10/07 11:03:37;;;;;;;8.00;5.10;;;21.00;99.90;;;;;;4985568;28;20627;-53
2023/10/07 11:06:07;;;;;;;10.70;4.47;;;20.90;99.90;;;;;;4986980;28;20236;-52
2023/10/07 11:08:37;;;;;;;11.30;4.67;;;21.00;99.90;;;;;;4984807;28;20592;-53
2023/10/07 11:11:10;;;;;;;7.40;5.03;;;21.10;99.90;;;;;;4984560;28;20319;-51
2023/10/07 11:13:40;;;;;;;7.43;4.33;;;21.20;99.90;;;;;;4982512;28;20677;-52
2023/10/07 11:16:10;;;;;;;9.63;4.33;;;21.30;99.90;;;;;;4997763;28;20259;-54
2023/10/07 11:18:45;;;;;;;9.17;4.60;;;21.40;99.90;;;;;;4983116;28;20228;-54
2023/10/07 11:21:15;;;;;;;11.97;5.27;;;21.60;99.90;;;;;;4982550;28;20685;-53
2023/10/07 11:23:49;;;;;;;8.23;4.57;;;21.50;99.90;;;;;;4988499;28;20228;-50
2023/10/07 11:26:18;;;;;;;12.07;5.10;;;21.60;99.90;;;;;;4979525;28;20671;-54
2023/10/07 11:28:48;;;;;;;8.10;4.50;;;21.70;99.90;;;;;;4986059;28;20237;-52
2023/10/07 11:31:20;;;;;;;9.27;4.63;;;21.70;99.90;;;;;;4981877;28;20193;-53
2023/10/07 11:33:52;;;;;;;8.27;4.80;;;21.70;99.90;;;;;;4981165;28;20190;-56
2023/10/07 11:36:21;;;;;;;9.37;4.47;;;21.70;99.90;;;;;;4981525;28;20231;-51
2023/10/07 11:38:52;;;;;;;6.57;4.60;;;21.80;99.90;;;;;;4983049;28;20229;-53
2023/10/07 11:41:21;;;;;;;10.83;4.80;;;22.00;99.90;;;;;;4981598;28;20276;-50
2023/10/07 11:43:49;;;;;;;7.27;4.73;;;22.10;99.90;;;;;;4979899;28;20234;-51
2023/10/07 11:46:19;;;;;;;10.83;4.70;;;22.20;99.90;;;;;;4982321;28;20742;-52
2023/10/07 11:48:47;;;;;;;12.40;4.80;;;22.10;99.90;;;;;;4983996;28;20538;-53
2023/10/07 11:51:16;;;;;;;9.17;4.47;;;22.20;99.90;;;;;;4986572;28;20587;-53
2023/10/07 11:53:46;;;;;;;8.67;4.17;;;22.10;99.90;;;;;;4981570;28;20228;-52
2023/10/07 11:56:15;;;;;;;6.77;3.77;;;22.20;99.90;;;;;;4978377;28;20303;-50
2023/10/07 11:58:45;;;;;;;7.07;4.40;;;22.30;99.90;;;;;;4979780;28;20281;-53
2023/10/07 12:01:14;;;;;;;6.60;3.67;;;22.40;99.90;;;;;;4983060;28;20225;-54
2023/10/07 12:03:43;;;;;;;5.93;4.20;;;22.50;99.90;;;;;;4978813;28;20241;-53
2023/10/07 12:06:12;;;;;;;7.47;4.23;;;22.40;99.90;;;;;;4978286;28;20230;-53
2023/10/07 12:08:42;;;;;;;9.07;4.70;;;22.60;99.90;;;;;;4981534;28;20250;-51
2023/10/07 12:11:10;;;;;;;5.63;3.80;;;22.70;99.90;;;;;;4982216;28;20225;-55
2023/10/07 12:13:42;;;;;;;10.07;4.27;;;22.90;99.90;;;;;;4984425;28;20240;-54
2023/10/07 12:16:12;;;;;;;7.50;4.03;;;23.00;99.90;;;;;;4981719;28;20198;-53
2023/10/07 12:18:40;;;;;;;8.23;3.90;;;23.00;99.90;;;;;;4985033;28;20230;-54
2023/10/07 12:21:12;;;;;;;4.50;3.50;;;23.10;99.90;;;;;;4980772;28;20674;-52
2023/10/07 12:23:43;;;;;;;8.40;3.63;;;23.10;99.90;;;;;;4987793;28;20323;-52
2023/10/07 12:26:15;;;;;;;4.73;3.50;;;23.10;99.90;;;;;;4984559;28;20229;-53
2023/10/07 12:28:48;;;;;;;8.33;3.60;;;23.00;99.90;;;;;;4987228;28;20223;-54
2023/10/07 12:31:17;;;;;;;10.00;3.50;;;23.10;99.90;;;;;;4985543;28;20573;-55
2023/10/07 12:33:45;;;;;;;7.07;3.60;;;23.00;99.90;;;;;;4978242;28;20832;-55
2023/10/07 12:36:16;;;;;;;3.97;3.30;;;22.90;99.90;;;;;;4980747;28;20255;-55
2023/10/07 12:38:45;;;;;;;7.20;3.60;;;23.00;99.90;;;;;;4975877;28;20219;-55
2023/10/07 12:41:14;;;;;;;9.23;4.07;;;23.00;99.90;;;;;;4980887;28;20231;-55
2023/10/07 12:43:43;;;;;;;9.80;3.83;;;23.00;99.90;;;;;;4993522;28;20218;-56
2023/10/07 12:46:14;;;;;;;6.07;3.30;;;23.20;99.90;;;;;;4987283;28;20207;-55
2023/10/07 12:48:46;;;;;;;4.93;3.10;;;23.00;99.90;;;;;;4989963;28;20306;-53
2023/10/07 12:51:17;;;;;;;5.80;3.87;;;23.00;99.90;;;;;;4991918;28;20233;-54
2023/10/07 12:53:46;;;;;;;6.93;3.80;;;23.10;99.90;;;;;;4996105;28;20313;-53
2023/10/07 12:56:17;;;;;;;7.37;3.60;;;23.40;99.90;;;;;;4992976;28;20227;-54
2023/10/07 12:58:46;;;;;;;5.80;3.37;;;23.40;99.90;;;;;;4987011;28;20570;-55
2023/10/07 13:01:19;;;;;;;7.80;3.77;;;23.50;99.90;;;;;;4990020;28;20202;-53
2023/10/07 13:03:52;;;;;;;8.40;3.63;;;23.60;99.90;;;;;;4994133;28;20193;-55
2023/10/07 13:06:23;;;;;;;5.93;4.00;;;23.70;99.90;;;;;;4989407;28;20260;-55
2023/10/07 13:08:53;;;;;;;4.60;3.80;;;23.60;99.90;;;;;;4993492;28;20245;-52
2023/10/07 13:11:26;;;;;;;6.37;3.33;;;23.60;99.90;;;;;;4985404;28;20813;-56
2023/10/07 13:13:57;;;;;;;7.90;3.43;;;23.60;99.90;;;;;;4988121;28;20231;-64
2023/10/07 13:16:27;;;;;;;10.87;3.83;;;23.60;99.90;;;;;;4989959;28;20693;-53
2023/10/07 13:18:56;;;;;;;6.10;4.00;;;23.60;99.90;;;;;;4988227;28;20188;-57
2023/10/07 13:21:26;;;;;;;5.73;3.67;;;23.50;99.90;;;;;;4985482;28;20309;-53
2023/10/07 13:23:54;;;;;;;8.93;3.50;;;23.60;99.90;;;;;;4990214;28;20223;-55
2023/10/07 13:26:24;;;;;;;9.67;3.53;;;23.60;99.90;;;;;;4985294;28;20235;-54
2023/10/07 13:28:52;;;;;;;7.87;3.60;;;23.60;99.90;;;;;;4991723;28;20253;-53